sensor_id;sensor_type;location;lat;lon;timestamp;temperature;humidity
76785;SHT30;66893;44.316;0.092;2023-02-12T00:01:22;12.59;37.06
76785;SHT30;66893;44.316;0.092;2023-02-12T00:03:47;12.53;37.09
76785;SHT30;66893;44.316;0.092;2023-02-12T00:06:13;12.50;37.09
76785;SHT30;66893;44.316;0.092;2023-02-12T00:08:39;12.50;37.19
76785;SHT30;66893;44.316;0.092;2023-02-12T00:11:15;12.48;37.08
76785;SHT30;66893;44.316;0.092;2023-02-12T00:13:41;12.45;37.16
76785;SHT30;66893;44.316;0.092;2023-02-12T00:16:10;12.41;37.18
76785;SHT30;66893;44.316;0.092;2023-02-12T00:18:36;12.41;37.20
76785;SHT30;66893;44.316;0.092;2023-02-12T00:21:02;12.38;37.24
76785;SHT30;66893;44.316;0.092;2023-02-12T00:23:27;12.38;37.24
76785;SHT30;66893;44.316;0.092;2023-02-12T00:25:53;12.35;37.19
76785;SHT30;66893;44.316;0.092;2023-02-12T00:28:19;12.29;37.22
76785;SHT30;66893;44.316;0.092;2023-02-12T00:30:44;12.29;37.22
76785;SHT30;66893;44.316;0.092;2023-02-12T00:33:09;12.25;37.24
76785;SHT30;66893;44.316;0.092;2023-02-12T00:35:35;12.21;37.30
76785;SHT30;66893;44.316;0.092;2023-02-12T00:38:00;12.18;37.31
76785;SHT30;66893;44.316;0.092;2023-02-12T00:40:26;12.17;37.31
76785;SHT30;66893;44.316;0.092;2023-02-12T00:42:51;12.13;37.39
76785;SHT30;66893;44.316;0.092;2023-02-12T00:45:17;12.13;37.34
76785;SHT30;66893;44.316;0.092;2023-02-12T00:47:42;12.08;37.31
76785;SHT30;66893;44.316;0.092;2023-02-12T00:50:08;12.07;37.33
76785;SHT30;66893;44.316;0.092;2023-02-12T00:52:34;12.04;37.38
76785;SHT30;66893;44.316;0.092;2023-02-12T00:54:59;12.00;37.36
76785;SHT30;66893;44.316;0.092;2023-02-12T00:57:25;12.00;37.32
76785;SHT30;66893;44.316;0.092;2023-02-12T00:59:50;11.94;37.42
76785;SHT30;66893;44.316;0.092;2023-02-12T01:02:16;11.93;37.45
76785;SHT30;66893;44.316;0.092;2023-02-12T01:04:42;11.93;37.42
76785;SHT30;66893;44.316;0.092;2023-02-12T01:07:08;11.89;37.42
76785;SHT30;66893;44.316;0.092;2023-02-12T01:09:34;11.86;37.42
76785;SHT30;66893;44.316;0.092;2023-02-12T01:11:59;11.84;37.46
76785;SHT30;66893;44.316;0.092;2023-02-12T01:14:25;11.84;37.40
76785;SHT30;66893;44.316;0.092;2023-02-12T01:16:50;11.80;37.41
76785;SHT30;66893;44.316;0.092;2023-02-12T01:19:15;11.80;37.50
76785;SHT30;66893;44.316;0.092;2023-02-12T01:21:41;11.79;37.47
76785;SHT30;66893;44.316;0.092;2023-02-12T01:24:07;11.76;37.47
76785;SHT30;66893;44.316;0.092;2023-02-12T01:26:32;11.73;37.49
76785;SHT30;66893;44.316;0.092;2023-02-12T01:29:00;11.72;37.47
76785;SHT30;66893;44.316;0.092;2023-02-12T01:31:29;11.67;37.56
76785;SHT30;66893;44.316;0.092;2023-02-12T01:33:56;11.67;37.51
76785;SHT30;66893;44.316;0.092;2023-02-12T01:36:22;11.65;37.52
76785;SHT30;66893;44.316;0.092;2023-02-12T01:38:49;11.63;37.58
76785;SHT30;66893;44.316;0.092;2023-02-12T01:41:18;11.62;37.58
76785;SHT30;66893;44.316;0.092;2023-02-12T01:43:44;11.58;37.60
76785;SHT30;66893;44.316;0.092;2023-02-12T01:46:13;11.56;37.59
76785;SHT30;66893;44.316;0.092;2023-02-12T01:48:42;11.55;37.59
76785;SHT30;66893;44.316;0.092;2023-02-12T01:51:11;11.52;37.59
76785;SHT30;66893;44.316;0.092;2023-02-12T01:53:44;11.49;37.65
76785;SHT30;66893;44.316;0.092;2023-02-12T01:56:10;11.47;37.69
76785;SHT30;66893;44.316;0.092;2023-02-12T01:58:40;11.46;37.67
76785;SHT30;66893;44.316;0.092;2023-02-12T02:01:11;11.45;37.67
76785;SHT30;66893;44.316;0.092;2023-02-12T02:03:38;11.43;37.62
76785;SHT30;66893;44.316;0.092;2023-02-12T02:06:11;11.39;37.70
76785;SHT30;66893;44.316;0.092;2023-02-12T02:08:38;11.39;37.71
76785;SHT30;66893;44.316;0.092;2023-02-12T02:11:04;11.36;37.76
76785;SHT30;66893;44.316;0.092;2023-02-12T02:13:50;11.32;37.73
76785;SHT30;66893;44.316;0.092;2023-02-12T02:16:35;11.29;37.74
76785;SHT30;66893;44.316;0.092;2023-02-12T02:27:09;11.24;37.78
76785;SHT30;66893;44.316;0.092;2023-02-12T02:35:27;11.17;37.82
76785;SHT30;66893;44.316;0.092;2023-02-12T02:38:11;11.12;37.72
76785;SHT30;66893;44.316;0.092;2023-02-12T02:43:19;11.08;37.84
76785;SHT30;66893;44.316;0.092;2023-02-12T02:45:50;11.06;37.87
76785;SHT30;66893;44.316;0.092;2023-02-12T02:48:26;11.06;37.86
76785;SHT30;66893;44.316;0.092;2023-02-12T02:51:00;11.03;37.90
76785;SHT30;66893;44.316;0.092;2023-02-12T02:54:07;11.01;37.89
76785;SHT30;66893;44.316;0.092;2023-02-12T02:56:36;11.01;37.90
76785;SHT30;66893;44.316;0.092;2023-02-12T02:59:06;11.00;37.88
76785;SHT30;66893;44.316;0.092;2023-02-12T03:01:39;10.97;37.92
76785;SHT30;66893;44.316;0.092;2023-02-12T03:04:21;10.96;37.88
76785;SHT30;66893;44.316;0.092;2023-02-12T03:06:58;10.93;37.86
76785;SHT30;66893;44.316;0.092;2023-02-12T03:09:33;10.90;37.89
76785;SHT30;66893;44.316;0.092;2023-02-12T03:12:07;10.89;37.89
76785;SHT30;66893;44.316;0.092;2023-02-12T03:14:38;10.89;37.89
76785;SHT30;66893;44.316;0.092;2023-02-12T03:17:14;10.87;37.87
76785;SHT30;66893;44.316;0.092;2023-02-12T03:19:44;10.84;37.88
76785;SHT30;66893;44.316;0.092;2023-02-12T03:22:18;10.81;37.84
76785;SHT30;66893;44.316;0.092;2023-02-12T03:24:59;10.80;37.81
76785;SHT30;66893;44.316;0.092;2023-02-12T03:27:31;10.77;37.78
76785;SHT30;66893;44.316;0.092;2023-02-12T03:29:58;10.77;37.84
76785;SHT30;66893;44.316;0.092;2023-02-12T03:35:24;10.71;37.78
76785;SHT30;66893;44.316;0.092;2023-02-12T03:40:39;10.70;37.89
76785;SHT30;66893;44.316;0.092;2023-02-12T03:43:21;10.69;37.94
76785;SHT30;66893;44.316;0.092;2023-02-12T03:53:54;10.59;37.99
76785;SHT30;66893;44.316;0.092;2023-02-12T03:56:40;10.60;37.92
76785;SHT30;66893;44.316;0.092;2023-02-12T03:59:07;10.55;37.91
76785;SHT30;66893;44.316;0.092;2023-02-12T04:01:34;10.55;37.91
76785;SHT30;66893;44.316;0.092;2023-02-12T04:04:03;10.53;37.94
76785;SHT30;66893;44.316;0.092;2023-02-12T04:06:29;10.55;37.97
76785;SHT30;66893;44.316;0.092;2023-02-12T04:08:58;10.53;37.99
76785;SHT30;66893;44.316;0.092;2023-02-12T04:16:52;10.46;37.91
76785;SHT30;66893;44.316;0.092;2023-02-12T04:25:17;10.42;37.92
76785;SHT30;66893;44.316;0.092;2023-02-12T04:30:25;10.39;37.94
76785;SHT30;66893;44.316;0.092;2023-02-12T04:32:56;10.38;37.96
76785;SHT30;66893;44.316;0.092;2023-02-12T04:35:30;10.38;37.95
76785;SHT30;66893;44.316;0.092;2023-02-12T04:40:30;10.36;37.84
76785;SHT30;66893;44.316;0.092;2023-02-12T04:42:55;10.35;37.96
76785;SHT30;66893;44.316;0.092;2023-02-12T04:45:32;10.35;37.90
76785;SHT30;66893;44.316;0.092;2023-02-12T04:47:59;10.34;37.88
76785;SHT30;66893;44.316;0.092;2023-02-12T04:50:25;10.31;37.92
76785;SHT30;66893;44.316;0.092;2023-02-12T04:52:50;10.31;37.93
76785;SHT30;66893;44.316;0.092;2023-02-12T04:55:16;10.29;38.00
76785;SHT30;66893;44.316;0.092;2023-02-12T04:57:41;10.28;38.02
76785;SHT30;66893;44.316;0.092;2023-02-12T05:00:12;10.25;38.00
76785;SHT30;66893;44.316;0.092;2023-02-12T05:02:37;10.25;38.00
76785;SHT30;66893;44.316;0.092;2023-02-12T05:05:03;10.24;38.02
76785;SHT30;66893;44.316;0.092;2023-02-12T05:07:29;10.19;38.00
76785;SHT30;66893;44.316;0.092;2023-02-12T05:09:54;10.19;38.06
76785;SHT30;66893;44.316;0.092;2023-02-12T05:12:20;10.19;38.02
76785;SHT30;66893;44.316;0.092;2023-02-12T05:14:45;10.18;38.01
76785;SHT30;66893;44.316;0.092;2023-02-12T05:17:11;10.16;38.07
76785;SHT30;66893;44.316;0.092;2023-02-12T05:19:36;10.16;38.06
76785;SHT30;66893;44.316;0.092;2023-02-12T05:22:02;10.15;38.11
76785;SHT30;66893;44.316;0.092;2023-02-12T05:24:27;10.12;38.06
76785;SHT30;66893;44.316;0.092;2023-02-12T05:26:52;10.09;38.02
76785;SHT30;66893;44.316;0.092;2023-02-12T05:29:18;10.09;38.00
76785;SHT30;66893;44.316;0.092;2023-02-12T05:31:44;10.09;38.09
76785;SHT30;66893;44.316;0.092;2023-02-12T05:34:11;10.08;38.07
76785;SHT30;66893;44.316;0.092;2023-02-12T05:36:37;10.05;38.09
76785;SHT30;66893;44.316;0.092;2023-02-12T05:39:03;10.02;38.13
76785;SHT30;66893;44.316;0.092;2023-02-12T05:41:28;10.04;38.13
76785;SHT30;66893;44.316;0.092;2023-02-12T05:43:59;10.01;38.12
76785;SHT30;66893;44.316;0.092;2023-02-12T05:46:24;9.98;38.05
76785;SHT30;66893;44.316;0.092;2023-02-12T05:48:50;9.97;38.10
76785;SHT30;66893;44.316;0.092;2023-02-12T05:51:18;9.97;38.10
76785;SHT30;66893;44.316;0.092;2023-02-12T05:53:48;9.93;38.14
76785;SHT30;66893;44.316;0.092;2023-02-12T05:56:23;9.94;38.16
76785;SHT30;66893;44.316;0.092;2023-02-12T05:58:57;9.93;38.08
76785;SHT30;66893;44.316;0.092;2023-02-12T06:01:28;9.91;38.17
76785;SHT30;66893;44.316;0.092;2023-02-12T06:03:54;9.88;38.16
76785;SHT30;66893;44.316;0.092;2023-02-12T06:06:20;9.88;38.12
76785;SHT30;66893;44.316;0.092;2023-02-12T06:08:48;9.84;38.17
76785;SHT30;66893;44.316;0.092;2023-02-12T06:11:14;9.84;38.13
76785;SHT30;66893;44.316;0.092;2023-02-12T06:13:40;9.84;38.22
76785;SHT30;66893;44.316;0.092;2023-02-12T06:16:06;9.83;38.13
76785;SHT30;66893;44.316;0.092;2023-02-12T06:18:34;9.83;38.17
76785;SHT30;66893;44.316;0.092;2023-02-12T06:21:02;9.81;38.24
76785;SHT30;66893;44.316;0.092;2023-02-12T06:23:28;9.80;38.18
76785;SHT30;66893;44.316;0.092;2023-02-12T06:25:55;9.79;38.19
76785;SHT30;66893;44.316;0.092;2023-02-12T06:28:21;9.77;38.19
76785;SHT30;66893;44.316;0.092;2023-02-12T06:30:47;9.79;38.22
76785;SHT30;66893;44.316;0.092;2023-02-12T06:33:12;9.79;38.22
76785;SHT30;66893;44.316;0.092;2023-02-12T06:35:38;9.77;38.19
76785;SHT30;66893;44.316;0.092;2023-02-12T06:38:04;9.74;38.19
76785;SHT30;66893;44.316;0.092;2023-02-12T06:40:29;9.76;38.18
76785;SHT30;66893;44.316;0.092;2023-02-12T06:42:55;9.73;38.23
76785;SHT30;66893;44.316;0.092;2023-02-12T06:45:20;9.70;38.23
76785;SHT30;66893;44.316;0.092;2023-02-12T06:47:46;9.71;38.24
76785;SHT30;66893;44.316;0.092;2023-02-12T06:50:11;9.70;38.25
76785;SHT30;66893;44.316;0.092;2023-02-12T06:52:37;9.67;38.24
76785;SHT30;66893;44.316;0.092;2023-02-12T06:55:02;9.66;38.29
76785;SHT30;66893;44.316;0.092;2023-02-12T06:57:28;9.64;38.31
76785;SHT30;66893;44.316;0.092;2023-02-12T06:59:54;9.63;38.29
76785;SHT30;66893;44.316;0.092;2023-02-12T07:02:20;9.64;38.27
76785;SHT30;66893;44.316;0.092;2023-02-12T07:04:45;9.63;38.29
76785;SHT30;66893;44.316;0.092;2023-02-12T07:07:11;9.66;38.26
76785;SHT30;66893;44.316;0.092;2023-02-12T07:09:36;9.67;38.25
76785;SHT30;66893;44.316;0.092;2023-02-12T07:12:02;9.66;38.27
76785;SHT30;66893;44.316;0.092;2023-02-12T07:14:27;9.69;38.20
76785;SHT30;66893;44.316;0.092;2023-02-12T07:16:54;9.69;38.20
76785;SHT30;66893;44.316;0.092;2023-02-12T07:19:20;9.67;38.23
76785;SHT30;66893;44.316;0.092;2023-02-12T07:21:45;9.66;38.21
76785;SHT30;66893;44.316;0.092;2023-02-12T07:24:12;9.63;38.22
76785;SHT30;66893;44.316;0.092;2023-02-12T07:26:38;9.67;38.20
76785;SHT30;66893;44.316;0.092;2023-02-12T07:29:04;9.70;38.14
76785;SHT30;66893;44.316;0.092;2023-02-12T07:31:30;9.63;38.21
76785;SHT30;66893;44.316;0.092;2023-02-12T07:33:57;9.67;38.24
76785;SHT30;66893;44.316;0.092;2023-02-12T07:36:23;9.63;38.27
76785;SHT30;66893;44.316;0.092;2023-02-12T07:38:49;9.59;38.22
76785;SHT30;66893;44.316;0.092;2023-02-12T07:41:32;9.35;38.23
76785;SHT30;66893;44.316;0.092;2023-02-12T07:44:03;9.25;38.47
76785;SHT30;66893;44.316;0.092;2023-02-12T07:46:43;9.19;38.61
76785;SHT30;66893;44.316;0.092;2023-02-12T07:49:18;9.19;38.69
76785;SHT30;66893;44.316;0.092;2023-02-12T07:51:45;9.19;38.72
76785;SHT30;66893;44.316;0.092;2023-02-12T07:54:12;9.19;38.69
76785;SHT30;66893;44.316;0.092;2023-02-12T07:56:39;9.24;38.76
76785;SHT30;66893;44.316;0.092;2023-02-12T07:59:10;9.24;38.72
76785;SHT30;66893;44.316;0.092;2023-02-12T08:01:45;9.26;38.82
76785;SHT30;66893;44.316;0.092;2023-02-12T08:04:12;9.31;38.91
76785;SHT30;66893;44.316;0.092;2023-02-12T08:06:40;9.35;38.91
76785;SHT30;66893;44.316;0.092;2023-02-12T08:09:08;9.35;38.95
76785;SHT30;66893;44.316;0.092;2023-02-12T08:11:35;9.39;38.94
76785;SHT30;66893;44.316;0.092;2023-02-12T08:14:01;9.39;39.01
76785;SHT30;66893;44.316;0.092;2023-02-12T08:16:28;9.42;39.00
76785;SHT30;66893;44.316;0.092;2023-02-12T08:18:55;9.42;39.04
76785;SHT30;66893;44.316;0.092;2023-02-12T08:21:23;9.44;39.04
76785;SHT30;66893;44.316;0.092;2023-02-12T08:23:49;9.47;39.04
76785;SHT30;66893;44.316;0.092;2023-02-12T08:26:19;9.50;39.13
76785;SHT30;66893;44.316;0.092;2023-02-12T08:28:53;9.50;39.13
76785;SHT30;66893;44.316;0.092;2023-02-12T08:31:24;9.53;39.14
76785;SHT30;66893;44.316;0.092;2023-02-12T08:33:51;9.57;39.19
76785;SHT30;66893;44.316;0.092;2023-02-12T08:36:18;9.60;39.29
76785;SHT30;66893;44.316;0.092;2023-02-12T08:38:45;9.61;39.25
76785;SHT30;66893;44.316;0.092;2023-02-12T08:41:20;9.66;39.36
76785;SHT30;66893;44.316;0.092;2023-02-12T08:43:46;9.69;39.35
76785;SHT30;66893;44.316;0.092;2023-02-12T08:46:16;9.71;39.45
76785;SHT30;66893;44.316;0.092;2023-02-12T08:48:43;9.73;39.48
76785;SHT30;66893;44.316;0.092;2023-02-12T08:51:20;9.79;39.47
76785;SHT30;66893;44.316;0.092;2023-02-12T08:53:50;9.79;39.58
76785;SHT30;66893;44.316;0.092;2023-02-12T08:56:16;9.81;39.63
76785;SHT30;66893;44.316;0.092;2023-02-12T08:58:43;9.87;39.78
76785;SHT30;66893;44.316;0.092;2023-02-12T09:01:10;9.91;39.88
76785;SHT30;66893;44.316;0.092;2023-02-12T09:03:37;9.94;39.87
76785;SHT30;66893;44.316;0.092;2023-02-12T09:06:03;9.99;40.04
76785;SHT30;66893;44.316;0.092;2023-02-12T09:08:30;10.04;40.04
76785;SHT30;66893;44.316;0.092;2023-02-12T09:10:55;10.08;40.06
76785;SHT30;66893;44.316;0.092;2023-02-12T09:13:20;10.12;40.32
76785;SHT30;66893;44.316;0.092;2023-02-12T09:15:46;10.15;40.41
76785;SHT30;66893;44.316;0.092;2023-02-12T09:18:13;10.22;40.48
76785;SHT30;66893;44.316;0.092;2023-02-12T09:20:41;10.28;40.50
76785;SHT30;66893;44.316;0.092;2023-02-12T09:23:10;10.31;40.52
76785;SHT30;66893;44.316;0.092;2023-02-12T09:25:39;10.36;40.76
76785;SHT30;66893;44.316;0.092;2023-02-12T09:28:05;10.41;40.87
76785;SHT30;66893;44.316;0.092;2023-02-12T09:30:30;10.46;40.89
76785;SHT30;66893;44.316;0.092;2023-02-12T09:32:56;10.50;40.98
76785;SHT30;66893;44.316;0.092;2023-02-12T09:35:22;10.56;41.15
76785;SHT30;66893;44.316;0.092;2023-02-12T09:37:48;10.60;41.10
76785;SHT30;66893;44.316;0.092;2023-02-12T09:40:38;10.67;41.07
76785;SHT30;66893;44.316;0.092;2023-02-12T09:45:49;10.74;41.19
76785;SHT30;66893;44.316;0.092;2023-02-12T09:51:06;10.85;41.32
76785;SHT30;66893;44.316;0.092;2023-02-12T09:53:36;10.90;41.44
76785;SHT30;66893;44.316;0.092;2023-02-12T09:56:17;10.96;41.29
76785;SHT30;66893;44.316;0.092;2023-02-12T09:59:07;11.03;41.49
76785;SHT30;66893;44.316;0.092;2023-02-12T10:01:33;11.04;41.65
76785;SHT30;66893;44.316;0.092;2023-02-12T10:03:59;11.11;41.54
76785;SHT30;66893;44.316;0.092;2023-02-12T10:06:28;11.15;41.64
76785;SHT30;66893;44.316;0.092;2023-02-12T10:17:27;11.36;42.22
76785;SHT30;66893;44.316;0.092;2023-02-12T10:28:25;11.59;42.80
76785;SHT30;66893;44.316;0.092;2023-02-12T10:33:32;11.72;43.09
76785;SHT30;66893;44.316;0.092;2023-02-12T10:39:24;11.89;43.10
76785;SHT30;66893;44.316;0.092;2023-02-12T10:42:14;11.95;43.10
76785;SHT30;66893;44.316;0.092;2023-02-12T10:44:40;12.01;43.46
76785;SHT30;66893;44.316;0.092;2023-02-12T10:47:21;12.05;43.38
76785;SHT30;66893;44.316;0.092;2023-02-12T10:49:54;12.14;43.40
76785;SHT30;66893;44.316;0.092;2023-02-12T10:52:54;12.21;43.33
76785;SHT30;66893;44.316;0.092;2023-02-12T10:55:29;12.27;43.39
76785;SHT30;66893;44.316;0.092;2023-02-12T10:57:56;12.32;43.06
76785;SHT30;66893;44.316;0.092;2023-02-12T11:00:29;12.38;43.27
76785;SHT30;66893;44.316;0.092;2023-02-12T11:05:37;12.52;43.02
76785;SHT30;66893;44.316;0.092;2023-02-12T11:08:04;12.57;42.81
76785;SHT30;66893;44.316;0.092;2023-02-12T11:10:40;12.66;43.19
76785;SHT30;66893;44.316;0.092;2023-02-12T11:13:22;12.75;42.91
76785;SHT30;66893;44.316;0.092;2023-02-12T11:15:48;12.79;42.84
76785;SHT30;66893;44.316;0.092;2023-02-12T11:18:28;12.86;42.66
76785;SHT30;66893;44.316;0.092;2023-02-12T11:21:10;12.91;42.59
76785;SHT30;66893;44.316;0.092;2023-02-12T11:23:42;12.99;42.61
76785;SHT30;66893;44.316;0.092;2023-02-12T11:28:56;13.15;42.63
76785;SHT30;66893;44.316;0.092;2023-02-12T11:31:30;13.22;42.41
76785;SHT30;66893;44.316;0.092;2023-02-12T11:34:14;13.28;42.36
76785;SHT30;66893;44.316;0.092;2023-02-12T11:36:48;13.37;42.23
76785;SHT30;66893;44.316;0.092;2023-02-12T11:39:23;13.44;42.17
76785;SHT30;66893;44.316;0.092;2023-02-12T11:41:59;13.52;42.25
76785;SHT30;66893;44.316;0.092;2023-02-12T11:44:39;13.61;42.18
76785;SHT30;66893;44.316;0.092;2023-02-12T11:47:09;13.69;42.12
76785;SHT30;66893;44.316;0.092;2023-02-12T11:49:47;13.77;41.96
76785;SHT30;66893;44.316;0.092;2023-02-12T11:52:25;13.83;41.85
76785;SHT30;66893;44.316;0.092;2023-02-12T11:54:55;13.93;41.96
76785;SHT30;66893;44.316;0.092;2023-02-12T11:58:03;14.01;41.72
76785;SHT30;66893;44.316;0.092;2023-02-12T12:00:36;14.13;41.74
76785;SHT30;66893;44.316;0.092;2023-02-12T12:06:47;14.29;41.74
76785;SHT30;66893;44.316;0.092;2023-02-12T12:11:59;14.52;41.43
76785;SHT30;66893;44.316;0.092;2023-02-12T12:14:30;14.62;41.28
76785;SHT30;66893;44.316;0.092;2023-02-12T12:17:24;14.71;41.24
76785;SHT30;66893;44.316;0.092;2023-02-12T12:20:15;14.82;41.16
76785;SHT30;66893;44.316;0.092;2023-02-12T12:25:34;14.97;41.14
76785;SHT30;66893;44.316;0.092;2023-02-12T12:28:46;15.10;41.04
76785;SHT30;66893;44.316;0.092;2023-02-12T12:34:06;15.27;40.87
76785;SHT30;66893;44.316;0.092;2023-02-12T13:10:13;16.47;39.57
76785;SHT30;66893;44.316;0.092;2023-02-12T13:12:51;16.57;39.49
76785;SHT30;66893;44.316;0.092;2023-02-12T13:18:08;16.73;39.27
76785;SHT30;66893;44.316;0.092;2023-02-12T13:20:38;16.83;39.21
76785;SHT30;66893;44.316;0.092;2023-02-12T13:26:04;16.99;39.00
76785;SHT30;66893;44.316;0.092;2023-02-12T13:28:54;17.13;38.93
76785;SHT30;66893;44.316;0.092;2023-02-12T13:31:24;17.26;38.78
76785;SHT30;66893;44.316;0.092;2023-02-12T13:33:57;17.32;38.69
76785;SHT30;66893;44.316;0.092;2023-02-12T13:36:24;17.40;38.59
76785;SHT30;66893;44.316;0.092;2023-02-12T13:39:00;17.51;38.51
76785;SHT30;66893;44.316;0.092;2023-02-12T13:41:29;17.58;38.45
76785;SHT30;66893;44.316;0.092;2023-02-12T13:44:18;17.67;38.35
76785;SHT30;66893;44.316;0.092;2023-02-12T13:57:26;18.09;37.93
76785;SHT30;66893;44.316;0.092;2023-02-12T13:59:53;18.17;37.78
76785;SHT30;66893;44.316;0.092;2023-02-12T14:05:25;18.65;37.84
76785;SHT30;66893;44.316;0.092;2023-02-12T14:08:01;19.78;36.93
76785;SHT30;66893;44.316;0.092;2023-02-12T14:13:20;22.04;34.22
76785;SHT30;66893;44.316;0.092;2023-02-12T14:15:49;22.81;33.14
76785;SHT30;66893;44.316;0.092;2023-02-12T14:18:31;23.43;32.39
76785;SHT30;66893;44.316;0.092;2023-02-12T14:23:42;23.96;31.50
76785;SHT30;66893;44.316;0.092;2023-02-12T14:26:15;24.28;31.14
76785;SHT30;66893;44.316;0.092;2023-02-12T14:31:36;24.73;30.52
76785;SHT30;66893;44.316;0.092;2023-02-12T14:41:32;21.81;32.70
76785;SHT30;66893;44.316;0.092;2023-02-12T14:47:00;20.63;33.62
76785;SHT30;66893;44.316;0.092;2023-02-12T14:49:39;20.19;33.97
76785;SHT30;66893;44.316;0.092;2023-02-12T14:54:46;19.54;34.54
76785;SHT30;66893;44.316;0.092;2023-02-12T14:57:32;19.26;34.83
76785;SHT30;66893;44.316;0.092;2023-02-12T15:00:16;19.05;35.01
76785;SHT30;66893;44.316;0.092;2023-02-12T15:05:27;18.59;35.54
76785;SHT30;66893;44.316;0.092;2023-02-12T15:08:07;18.43;35.69
76785;SHT30;66893;44.316;0.092;2023-02-12T15:10:40;18.30;35.83
76785;SHT30;66893;44.316;0.092;2023-02-12T15:13:27;18.23;36.25
76785;SHT30;66893;44.316;0.092;2023-02-12T15:16:06;18.22;36.46
76785;SHT30;66893;44.316;0.092;2023-02-12T15:18:54;18.29;36.55
76785;SHT30;66893;44.316;0.092;2023-02-12T15:21:30;18.38;36.60
76785;SHT30;66893;44.316;0.092;2023-02-12T15:26:30;18.50;36.86
76785;SHT30;66893;44.316;0.092;2023-02-12T15:28:56;18.55;36.81
76785;SHT30;66893;44.316;0.092;2023-02-12T15:31:26;18.64;36.89
76785;SHT30;66893;44.316;0.092;2023-02-12T15:33:54;18.67;36.93
76785;SHT30;66893;44.316;0.092;2023-02-12T15:36:23;18.73;36.90
76785;SHT30;66893;44.316;0.092;2023-02-12T15:38:54;18.78;36.91
76785;SHT30;66893;44.316;0.092;2023-02-12T15:47:13;18.96;37.04
76785;SHT30;66893;44.316;0.092;2023-02-12T15:49:41;19.00;37.17
76785;SHT30;66893;44.316;0.092;2023-02-12T15:52:17;19.03;37.12
76785;SHT30;66893;44.316;0.092;2023-02-12T15:54:45;19.02;37.09
76785;SHT30;66893;44.316;0.092;2023-02-12T15:57:13;19.03;37.12
76785;SHT30;66893;44.316;0.092;2023-02-12T15:59:49;19.09;37.12
76785;SHT30;66893;44.316;0.092;2023-02-12T16:02:29;19.13;37.20
76785;SHT30;66893;44.316;0.092;2023-02-12T16:04:56;19.10;37.19
76785;SHT30;66893;44.316;0.092;2023-02-12T16:07:23;19.10;37.20
76785;SHT30;66893;44.316;0.092;2023-02-12T16:09:50;19.13;37.23
76785;SHT30;66893;44.316;0.092;2023-02-12T16:12:19;19.13;37.33
76785;SHT30;66893;44.316;0.092;2023-02-12T16:14:51;19.13;37.27
76785;SHT30;66893;44.316;0.092;2023-02-12T16:17:29;19.10;37.37
76785;SHT30;66893;44.316;0.092;2023-02-12T16:20:17;19.12;37.32
76785;SHT30;66893;44.316;0.092;2023-02-12T16:22:47;19.12;37.37
76785;SHT30;66893;44.316;0.092;2023-02-12T16:25:17;19.12;37.39
76785;SHT30;66893;44.316;0.092;2023-02-12T16:28:05;19.09;37.36
76785;SHT30;66893;44.316;0.092;2023-02-12T16:30:36;19.09;37.51
76785;SHT30;66893;44.316;0.092;2023-02-12T16:33:33;19.06;37.45
76785;SHT30;66893;44.316;0.092;2023-02-12T16:36:05;19.05;37.48
76785;SHT30;66893;44.316;0.092;2023-02-12T16:38:46;19.02;37.53
76785;SHT30;66893;44.316;0.092;2023-02-12T16:46:18;18.94;37.84
76785;SHT30;66893;44.316;0.092;2023-02-12T16:48:47;18.94;37.79
76785;SHT30;66893;44.316;0.092;2023-02-12T16:53:46;18.91;37.98
76785;SHT30;66893;44.316;0.092;2023-02-12T16:56:16;18.92;37.99
76785;SHT30;66893;44.316;0.092;2023-02-12T16:58:44;18.89;38.10
76785;SHT30;66893;44.316;0.092;2023-02-12T17:01:15;18.85;38.08
76785;SHT30;66893;44.316;0.092;2023-02-12T17:03:42;18.82;38.20
76785;SHT30;66893;44.316;0.092;2023-02-12T17:06:09;18.79;38.23
76785;SHT30;66893;44.316;0.092;2023-02-12T17:08:35;18.73;38.34
76785;SHT30;66893;44.316;0.092;2023-02-12T17:11:01;18.71;38.32
76785;SHT30;66893;44.316;0.092;2023-02-12T17:13:26;18.65;38.43
76785;SHT30;66893;44.316;0.092;2023-02-12T17:15:57;18.61;38.54
76785;SHT30;66893;44.316;0.092;2023-02-12T17:18:23;18.52;38.56
76785;SHT30;66893;44.316;0.092;2023-02-12T17:21:20;18.50;38.64
76785;SHT30;66893;44.316;0.092;2023-02-12T17:23:42;18.47;38.66
76785;SHT30;66893;44.316;0.092;2023-02-12T17:26:07;18.44;38.73
76785;SHT30;66893;44.316;0.092;2023-02-12T17:28:34;18.37;38.77
76785;SHT30;66893;44.316;0.092;2023-02-12T17:30:59;18.37;38.87
76785;SHT30;66893;44.316;0.092;2023-02-12T17:33:27;18.31;38.85
76785;SHT30;66893;44.316;0.092;2023-02-12T17:35:53;18.24;38.92
76785;SHT30;66893;44.316;0.092;2023-02-12T17:38:18;18.23;38.94
76785;SHT30;66893;44.316;0.092;2023-02-12T17:40:44;18.18;39.09
76785;SHT30;66893;44.316;0.092;2023-02-12T17:43:09;18.13;39.06
76785;SHT30;66893;44.316;0.092;2023-02-12T17:45:39;18.09;39.17
76785;SHT30;66893;44.316;0.092;2023-02-12T17:48:07;18.02;39.15
76785;SHT30;66893;44.316;0.092;2023-02-12T17:50:32;17.99;39.19
76785;SHT30;66893;44.316;0.092;2023-02-12T17:52:58;17.92;39.24
76785;SHT30;66893;44.316;0.092;2023-02-12T17:55:23;17.89;39.25
76785;SHT30;66893;44.316;0.092;2023-02-12T17:57:53;17.86;39.30
76785;SHT30;66893;44.316;0.092;2023-02-12T18:00:19;17.81;39.32
76785;SHT30;66893;44.316;0.092;2023-02-12T18:02:45;17.78;39.36
76785;SHT30;66893;44.316;0.092;2023-02-12T18:05:10;17.74;39.33
76785;SHT30;66893;44.316;0.092;2023-02-12T18:07:36;17.67;39.38
76785;SHT30;66893;44.316;0.092;2023-02-12T18:10:03;17.62;39.42
76785;SHT30;66893;44.316;0.092;2023-02-12T18:12:30;17.58;39.26
76785;SHT30;66893;44.316;0.092;2023-02-12T18:14:57;17.48;39.28
76785;SHT30;66893;44.316;0.092;2023-02-12T18:17:23;17.42;39.36
76785;SHT30;66893;44.316;0.092;2023-02-12T18:19:48;17.37;39.37
76785;SHT30;66893;44.316;0.092;2023-02-12T18:22:14;17.31;39.42
76785;SHT30;66893;44.316;0.092;2023-02-12T18:24:39;17.28;39.45
76785;SHT30;66893;44.316;0.092;2023-02-12T18:27:05;17.24;39.46
76785;SHT30;66893;44.316;0.092;2023-02-12T18:29:31;17.20;39.48
76785;SHT30;66893;44.316;0.092;2023-02-12T18:31:56;17.19;39.45
76785;SHT30;66893;44.316;0.092;2023-02-12T18:34:22;17.14;39.51
76785;SHT30;66893;44.316;0.092;2023-02-12T18:36:49;17.13;39.46
76785;SHT30;66893;44.316;0.092;2023-02-12T18:39:14;17.09;39.47
76785;SHT30;66893;44.316;0.092;2023-02-12T18:41:40;17.06;39.51
76785;SHT30;66893;44.316;0.092;2023-02-12T18:44:05;17.00;39.51
76785;SHT30;66893;44.316;0.092;2023-02-12T18:46:31;16.97;39.49
76785;SHT30;66893;44.316;0.092;2023-02-12T18:48:57;16.93;39.50
76785;SHT30;66893;44.316;0.092;2023-02-12T18:51:25;16.90;39.48
76785;SHT30;66893;44.316;0.092;2023-02-12T18:53:55;16.89;39.47
76785;SHT30;66893;44.316;0.092;2023-02-12T18:56:22;16.83;39.48
76785;SHT30;66893;44.316;0.092;2023-02-12T18:58:47;16.80;39.47